createdAt,value
2022-10-20T00:00:15.086Z,72.98
2022-10-20T00:03:17.869Z,72.37
2022-10-20T00:06:23.299Z,72.58
2022-10-20T00:09:26.094Z,73.17
2022-10-20T00:12:28.874Z,72.85
2022-10-20T00:15:32.880Z,73.23
2022-10-20T00:18:36.374Z,72.99
2022-10-20T00:21:38.972Z,72.55
2022-10-20T00:24:41.825Z,72.58
2022-10-20T00:27:44.658Z,73.08
2022-10-20T00:30:48.671Z,73.08
2022-10-20T00:33:51.477Z,73.11
2022-10-20T00:36:54.077Z,72.85
2022-10-20T00:39:56.817Z,73.21
2022-10-20T00:42:59.547Z,73.01
2022-10-20T00:46:03.541Z,73.79
2022-10-20T00:49:12.921Z,73.46
2022-10-20T00:52:18.511Z,73.91
2022-10-20T00:55:25.567Z,73.88
2022-10-20T00:58:29.803Z,73.87
2022-10-20T01:01:34.248Z,73.85
2022-10-20T01:04:39.106Z,73.61
2022-10-20T01:07:41.925Z,74.33
2022-10-20T01:10:52.603Z,74.13
2022-10-20T01:14:09.240Z,74.20
2022-10-20T01:17:23.745Z,74.27
2022-10-20T01:20:49.955Z,73.85
2022-10-20T01:24:12.895Z,73.68
2022-10-20T01:27:32.011Z,73.56
2022-10-20T01:30:40.033Z,73.59
2022-10-20T01:33:47.684Z,73.85
2022-10-20T01:40:27.229Z,73.29
2022-10-20T01:43:34.882Z,73.15
2022-10-20T01:46:41.079Z,73.97
2022-10-20T01:49:45.370Z,74.02
2022-10-20T01:52:48.350Z,73.55
2022-10-20T01:55:53.096Z,73.44
2022-10-20T01:59:18.266Z,73.67
2022-10-20T02:02:35.949Z,73.56
2022-10-20T02:05:51.541Z,73.46
2022-10-20T02:08:59.362Z,73.74
2022-10-20T02:12:05.716Z,73.99
2022-10-20T02:15:13.267Z,73.88
2022-10-20T02:18:20.966Z,73.40
2022-10-20T02:21:23.973Z,72.68
2022-10-20T02:24:30.591Z,72.02
2022-10-20T02:27:38.252Z,73.03
2022-10-20T02:30:43.058Z,73.51
2022-10-20T02:33:47.249Z,73.71
2022-10-20T02:36:49.863Z,73.71
2022-10-20T02:39:52.667Z,73.46
2022-10-20T02:42:55.271Z,73.80
2022-10-20T02:45:59.326Z,74.11
2022-10-20T02:49:02.152Z,73.87
2022-10-20T02:52:04.869Z,74.01
2022-10-20T02:55:08.233Z,74.20
2022-10-20T02:58:10.899Z,74.09
2022-10-20T03:01:15.033Z,74.18
2022-10-20T03:04:17.933Z,73.65
2022-10-20T03:07:20.649Z,73.53
2022-10-20T03:10:23.469Z,74.08
2022-10-20T03:13:26.231Z,73.90
2022-10-20T03:16:30.469Z,73.33
2022-10-20T03:19:33.239Z,73.62
2022-10-20T03:22:35.886Z,74.07
2022-10-20T03:25:38.601Z,74.11
2022-10-20T03:28:41.989Z,74.16
2022-10-20T03:31:46.144Z,73.61
2022-10-20T03:34:48.925Z,73.23
2022-10-20T03:37:51.533Z,73.82
2022-10-20T03:40:54.321Z,72.55
2022-10-20T03:43:57.013Z,73.38
2022-10-20T03:47:01.201Z,73.46
2022-10-20T03:53:13.869Z,73.94
2022-10-20T03:56:19.778Z,74.38
2022-10-20T03:59:24.440Z,74.18
2022-10-20T04:02:37.335Z,73.58
2022-10-20T04:05:40.615Z,74.12
2022-10-20T04:08:43.287Z,74.13
2022-10-20T04:11:46.093Z,74.33
2022-10-20T04:14:48.749Z,74.48
2022-10-20T04:17:52.878Z,74.15
2022-10-20T04:20:55.515Z,74.98
2022-10-20T04:23:58.111Z,74.95
2022-10-20T04:27:00.894Z,74.77
2022-10-20T04:30:03.517Z,74.68
2022-10-20T04:33:07.625Z,74.50
2022-10-20T04:36:13.474Z,75.11
2022-10-20T04:39:16.566Z,74.88
2022-10-20T04:42:19.354Z,74.73
2022-10-20T04:45:21.992Z,74.92
2022-10-20T04:48:26.303Z,74.46
2022-10-20T04:51:29.019Z,73.92
2022-10-20T04:54:31.747Z,75.01
2022-10-20T04:57:35.374Z,74.73
2022-10-20T05:00:39.961Z,74.59
2022-10-20T05:03:44.492Z,74.75
2022-10-20T05:06:47.289Z,74.49
2022-10-20T05:09:49.890Z,74.67
2022-10-20T05:12:52.616Z,74.92
2022-10-20T05:15:55.210Z,74.89
2022-10-20T05:18:59.181Z,74.88
2022-10-20T05:22:03.003Z,75.54
2022-10-20T05:25:31.378Z,74.33
2022-10-20T05:28:29.045Z,74.94
2022-10-20T05:31:31.782Z,75.39
2022-10-20T05:34:35.901Z,75.05
2022-10-20T05:37:38.626Z,74.92
2022-10-20T05:40:41.193Z,74.68
2022-10-20T05:43:44.088Z,74.83
2022-10-20T05:46:46.915Z,74.52
2022-10-20T05:49:50.929Z,74.76
2022-10-20T05:52:54.020Z,74.61
2022-10-20T05:55:56.643Z,75.06
2022-10-20T05:58:59.803Z,74.80
2022-10-20T06:02:02.420Z,74.93
2022-10-20T06:05:06.559Z,74.78
2022-10-20T06:08:09.344Z,74.82
2022-10-20T06:11:13.390Z,74.93
2022-10-20T06:14:17.374Z,74.89
2022-10-20T06:17:22.688Z,74.91
2022-10-20T06:20:26.894Z,74.64
2022-10-20T06:23:29.916Z,75.18
2022-10-20T06:26:36.349Z,74.59
2022-10-20T06:29:39.224Z,74.02
2022-10-20T06:32:41.930Z,74.83
2022-10-20T06:35:45.878Z,74.92
2022-10-20T06:38:49.289Z,75.11
2022-10-20T06:41:53.969Z,75.19
2022-10-20T06:44:56.793Z,74.00
2022-10-20T06:47:59.471Z,71.62
2022-10-20T06:51:05.946Z,69.66
2022-10-20T06:54:09.571Z,68.70
2022-10-20T06:57:12.202Z,68.55
2022-10-20T07:00:15.848Z,70.28
2022-10-20T07:03:20.384Z,69.52
2022-10-20T07:06:26.178Z,71.18
2022-10-20T07:09:28.984Z,71.45
2022-10-20T07:12:31.679Z,69.91
2022-10-20T07:15:34.461Z,69.18
2022-10-20T07:18:37.455Z,66.48
2022-10-20T07:21:45.308Z,67.17
2022-10-20T07:24:48.520Z,67.20
2022-10-20T07:27:51.191Z,65.14
2022-10-20T07:30:53.948Z,66.05
2022-10-20T07:34:07.112Z,67.98
2022-10-20T07:37:21.921Z,66.85
2022-10-20T07:43:32.140Z,67.81
2022-10-20T07:46:35.034Z,68.50
2022-10-20T07:49:45.329Z,67.77
2022-10-20T07:52:53.187Z,67.40
2022-10-20T07:55:55.798Z,67.22
2022-10-20T07:58:59.102Z,67.71
2022-10-20T08:02:01.901Z,67.99
2022-10-20T08:05:05.250Z,67.25
2022-10-20T08:08:09.179Z,65.80
2022-10-20T08:11:12.074Z,65.34
2022-10-20T08:14:14.715Z,65.59
2022-10-20T08:17:17.312Z,64.92
2022-10-20T08:20:23.598Z,65.20
2022-10-20T08:23:30.338Z,64.99
2022-10-20T08:26:33.123Z,63.69
2022-10-20T08:29:35.730Z,64.09
2022-10-20T08:32:38.796Z,63.12
2022-10-20T08:35:41.707Z,63.03
2022-10-20T08:38:45.701Z,63.20
2022-10-20T08:42:09.215Z,62.96
2022-10-20T08:45:16.748Z,62.32
2022-10-20T08:48:23.455Z,61.84
2022-10-20T08:51:30.207Z,60.95
2022-10-20T08:54:35.536Z,61.02
2022-10-20T08:57:38.619Z,61.92
2022-10-20T09:00:42.055Z,61.23
2022-10-20T09:03:45.130Z,60.75
2022-10-20T09:06:53.281Z,59.39
2022-10-20T09:10:05.523Z,59.63
2022-10-20T09:13:18.472Z,58.68
2022-10-20T09:16:40.472Z,59.15
2022-10-20T09:19:49.048Z,57.68
2022-10-20T09:22:51.768Z,56.27
2022-10-20T09:25:55.680Z,56.08
2022-10-20T09:29:12.831Z,55.12
2022-10-20T09:35:49.130Z,54.49
2022-10-20T09:38:54.141Z,54.21
2022-10-20T09:42:05.251Z,53.92
2022-10-20T09:45:17.435Z,55.42
2022-10-20T09:48:24.968Z,54.58
2022-10-20T09:51:29.639Z,52.94
2022-10-20T09:54:32.329Z,53.57
2022-10-20T09:57:37.149Z,52.00
2022-10-20T10:00:46.986Z,49.79
2022-10-20T10:03:51.751Z,50.36
2022-10-20T10:06:54.288Z,49.72
2022-10-20T10:10:00.387Z,50.23
2022-10-20T10:16:16.289Z,50.39
2022-10-20T10:19:21.780Z,48.82
2022-10-20T10:22:24.719Z,48.62
2022-10-20T10:25:28.904Z,48.87
2022-10-20T10:28:36.052Z,48.41
2022-10-20T10:31:50.898Z,47.21
2022-10-20T10:35:13.713Z,47.69
2022-10-20T10:38:16.423Z,47.51
2022-10-20T10:41:26.226Z,46.89
2022-10-20T10:44:44.952Z,47.50
2022-10-20T10:48:10.671Z,47.30
2022-10-20T10:51:24.306Z,45.33
2022-10-20T10:54:41.622Z,44.75
2022-10-20T10:57:55.916Z,45.31
2022-10-20T11:01:08.523Z,45.06
2022-10-20T11:04:59.708Z,43.97
2022-10-20T11:08:18.110Z,44.66
2022-10-20T11:11:28.816Z,44.41
2022-10-20T11:14:41.942Z,43.11
2022-10-20T11:17:56.763Z,42.71
2022-10-20T11:21:09.426Z,42.92
2022-10-20T11:24:46.774Z,43.22
2022-10-20T11:27:50.519Z,41.94
2022-10-20T11:30:53.148Z,42.22
2022-10-20T11:34:02.586Z,41.75
2022-10-20T11:37:14.208Z,41.69
2022-10-20T11:40:24.105Z,41.18
2022-10-20T11:43:30.474Z,42.11
2022-10-20T11:46:40.006Z,41.87
2022-10-20T11:49:45.054Z,42.60
2022-10-20T11:53:14.418Z,42.21
2022-10-20T11:56:38.720Z,41.65
2022-10-20T12:00:04.570Z,41.49
2022-10-20T12:03:42.400Z,42.09
2022-10-20T12:06:59.084Z,42.62
2022-10-20T12:10:19.296Z,43.12
2022-10-20T12:13:30.783Z,43.39
2022-10-20T12:17:06.617Z,42.62
2022-10-20T12:21:01.724Z,41.97
2022-10-20T12:24:37.459Z,43.22
2022-10-20T12:27:40.103Z,42.91
2022-10-20T12:30:45.229Z,42.22
2022-10-20T12:34:03.728Z,42.90
2022-10-20T12:37:09.206Z,42.07
2022-10-20T12:40:27.533Z,42.04
2022-10-20T12:43:37.477Z,42.03
2022-10-20T12:46:44.760Z,42.58
2022-10-20T12:49:54.858Z,42.88
2022-10-20T12:53:10.163Z,42.88
2022-10-20T12:56:21.536Z,43.51
2022-10-20T12:59:44.921Z,43.31
2022-10-20T13:02:50.857Z,43.59
2022-10-20T13:05:53.508Z,43.92
2022-10-20T13:09:22.555Z,42.70
2022-10-20T13:12:29.096Z,43.79
2022-10-20T13:15:35.431Z,44.13
2022-10-20T13:18:46.591Z,43.98
2022-10-20T13:21:50.173Z,44.45
2022-10-20T13:24:56.028Z,44.48
2022-10-20T13:28:19.342Z,44.56
2022-10-20T13:31:28.468Z,45.07
2022-10-20T13:34:38.816Z,45.30
2022-10-20T13:37:57.485Z,44.16
2022-10-20T13:41:09.196Z,44.49
2022-10-20T13:44:27.884Z,44.74
2022-10-20T13:47:50.415Z,45.46
2022-10-20T13:50:59.786Z,44.97
2022-10-20T13:54:05.911Z,44.89
2022-10-20T13:57:15.650Z,45.49
2022-10-20T14:00:22.309Z,45.58
2022-10-20T14:03:24.877Z,44.98
2022-10-20T14:06:35.896Z,45.51
2022-10-20T14:09:40.614Z,46.22
2022-10-20T14:12:46.328Z,45.71
2022-10-20T14:15:54.629Z,46.20
2022-10-20T14:19:05.610Z,46.21
2022-10-20T14:22:16.955Z,47.15
2022-10-20T14:25:19.681Z,46.64
2022-10-20T14:28:23.580Z,46.17
2022-10-20T14:31:27.731Z,46.51
2022-10-20T14:34:34.423Z,46.21
2022-10-20T14:37:40.765Z,46.97
2022-10-20T14:40:50.856Z,48.02
2022-10-20T14:43:56.684Z,47.13
2022-10-20T14:47:05.174Z,46.92
2022-10-20T14:50:08.775Z,47.17
2022-10-20T14:53:19.646Z,47.08
2022-10-20T14:56:25.488Z,47.20
2022-10-20T14:59:30.462Z,47.88
2022-10-20T15:02:38.606Z,47.35
2022-10-20T15:05:43.719Z,47.82
2022-10-20T15:09:04.737Z,48.38
2022-10-20T15:12:08.320Z,48.84
2022-10-20T15:15:22.065Z,48.72
2022-10-20T15:18:26.386Z,48.92
2022-10-20T15:21:29.065Z,48.86
2022-10-20T15:24:31.636Z,49.54
2022-10-20T15:27:34.346Z,49.62
2022-10-20T15:30:36.896Z,49.27
2022-10-20T15:33:40.905Z,48.90
2022-10-20T15:36:44.628Z,49.59
2022-10-20T15:39:48.920Z,49.59
2022-10-20T15:42:51.582Z,49.33
2022-10-20T15:45:56.073Z,49.53
2022-10-20T15:49:00.255Z,49.21
2022-10-20T15:52:02.869Z,49.22
2022-10-20T15:55:22.446Z,49.72
2022-10-20T15:58:25.056Z,49.92
2022-10-20T16:01:28.076Z,50.62
2022-10-20T16:04:32.483Z,50.18
2022-10-20T16:07:35.552Z,51.37
2022-10-20T16:10:39.673Z,51.75
2022-10-20T16:13:42.617Z,51.71
2022-10-20T16:16:45.765Z,52.67
2022-10-20T16:19:49.697Z,53.25
2022-10-20T16:22:52.398Z,53.46
2022-10-20T16:25:54.966Z,53.64
2022-10-20T16:28:57.758Z,53.21
2022-10-20T16:32:00.328Z,53.89
2022-10-20T16:35:05.584Z,54.24
2022-10-20T16:38:08.285Z,54.80
2022-10-20T16:41:13.308Z,55.33
2022-10-20T16:44:16.211Z,55.39
2022-10-20T16:47:18.784Z,55.47
2022-10-20T16:50:22.718Z,56.11
2022-10-20T16:53:25.659Z,55.88
2022-10-20T16:56:28.683Z,56.06
2022-10-20T16:59:31.345Z,56.90
2022-10-20T17:02:35.194Z,56.29
2022-10-20T17:05:39.236Z,57.39
2022-10-20T17:08:42.298Z,57.42
2022-10-20T17:11:44.925Z,58.02
2022-10-20T17:14:47.586Z,58.10
2022-10-20T17:17:50.130Z,58.15
2022-10-20T17:20:57.080Z,58.22
2022-10-20T17:24:00.557Z,58.69
2022-10-20T17:27:03.250Z,58.38
2022-10-20T17:30:06.901Z,58.40
2022-10-20T17:33:10.069Z,59.29
2022-10-20T17:36:15.146Z,59.11
2022-10-20T17:39:17.864Z,59.93
2022-10-20T17:42:20.398Z,59.58
2022-10-20T17:45:23.008Z,60.75
2022-10-20T17:48:25.850Z,60.14
2022-10-20T17:51:33.396Z,60.40
2022-10-20T17:54:37.539Z,60.71
2022-10-20T17:57:40.117Z,61.30
2022-10-20T18:00:56.030Z,60.96
2022-10-20T18:04:00.965Z,60.43
2022-10-20T18:07:06.310Z,62.08
2022-10-20T18:10:09.724Z,61.41
2022-10-20T18:13:12.316Z,61.22
2022-10-20T18:16:17.505Z,61.14
2022-10-20T18:19:20.805Z,61.55
2022-10-20T18:22:24.834Z,61.18
2022-10-20T18:25:27.499Z,62.11
2022-10-20T18:28:30.085Z,62.12
2022-10-20T18:31:34.323Z,61.31
2022-10-20T18:34:38.501Z,61.77
2022-10-20T18:37:43.267Z,61.28
2022-10-20T18:40:45.858Z,61.77
2022-10-20T18:43:57.648Z,62.48
2022-10-20T18:47:01.056Z,63.14
2022-10-20T18:50:03.979Z,62.31
2022-10-20T18:53:08.030Z,62.08
2022-10-20T18:56:15.397Z,63.00
2022-10-20T18:59:17.971Z,62.31
2022-10-20T19:02:20.679Z,61.52
2022-10-20T19:05:23.241Z,61.82
2022-10-20T19:08:27.229Z,62.51
2022-10-20T19:11:32.384Z,61.27
2022-10-20T19:14:34.927Z,62.21
2022-10-20T19:17:37.936Z,61.94
2022-10-20T19:20:40.469Z,61.68
2022-10-20T19:23:46.316Z,62.15
2022-10-20T19:26:57.474Z,62.08
2022-10-20T19:30:11.233Z,62.80
2022-10-20T19:33:14.426Z,62.67
2022-10-20T19:36:17.511Z,62.30
2022-10-20T19:39:25.032Z,62.37
2022-10-20T19:42:27.777Z,62.60
2022-10-20T19:45:30.319Z,62.66
2022-10-20T19:48:36.526Z,62.92
2022-10-20T19:51:39.888Z,62.65
2022-10-20T19:54:43.852Z,62.69
2022-10-20T19:57:46.579Z,63.58
2022-10-20T20:00:51.927Z,63.49
2022-10-20T20:03:54.740Z,62.87
2022-10-20T20:07:01.734Z,63.27
2022-10-20T20:10:07.520Z,63.68
2022-10-20T20:13:10.222Z,63.68
2022-10-20T20:16:12.887Z,64.06
2022-10-20T20:19:16.362Z,64.46
2022-10-20T20:22:19.083Z,64.21
2022-10-20T20:25:23.124Z,62.81
2022-10-20T20:28:25.708Z,63.46
2022-10-20T20:31:29.825Z,63.64
2022-10-20T20:34:32.555Z,63.91
2022-10-20T20:37:35.688Z,64.28
2022-10-20T20:40:44.421Z,63.70
2022-10-20T20:43:47.061Z,64.44
2022-10-20T20:46:49.834Z,63.40
2022-10-20T20:49:52.770Z,64.22
2022-10-20T20:52:55.492Z,64.21
2022-10-20T20:56:01.207Z,64.64
2022-10-20T20:59:04.688Z,64.10
2022-10-20T21:02:07.859Z,64.40
2022-10-20T21:05:10.772Z,62.82
2022-10-20T21:08:13.694Z,63.89
2022-10-20T21:11:20.508Z,63.52
2022-10-20T21:14:23.448Z,63.93
2022-10-20T21:17:26.169Z,63.68
2022-10-20T21:20:29.138Z,63.27
2022-10-20T21:23:32.137Z,63.21
2022-10-20T21:26:36.246Z,62.26
2022-10-20T21:29:40.983Z,62.71
2022-10-20T21:32:45.726Z,63.14
2022-10-20T21:35:48.412Z,62.96
2022-10-20T21:38:52.246Z,63.56
2022-10-20T21:41:56.300Z,63.54
2022-10-20T21:44:58.844Z,63.93
2022-10-20T21:48:01.607Z,63.03
2022-10-20T21:51:08.366Z,63.09
2022-10-20T21:54:13.442Z,62.55
2022-10-20T21:57:17.556Z,62.77
2022-10-20T22:00:21.938Z,62.31
2022-10-20T22:03:27.482Z,62.71
2022-10-20T22:06:30.273Z,62.41
2022-10-20T22:09:33.053Z,61.58
2022-10-20T22:15:44.590Z,61.74
2022-10-20T22:18:47.504Z,61.69
2022-10-20T22:21:54.694Z,62.62
2022-10-20T22:24:57.410Z,63.42
2022-10-20T22:28:01.425Z,64.30
2022-10-20T22:31:04.401Z,65.14
2022-10-20T22:34:07.703Z,66.43
2022-10-20T22:37:12.910Z,66.93
2022-10-20T22:40:15.580Z,67.36
2022-10-20T22:43:19.802Z,67.78
2022-10-20T22:46:22.464Z,70.27
2022-10-20T22:49:25.024Z,69.71
2022-10-20T22:52:27.748Z,70.43
2022-10-20T22:55:30.322Z,70.34
2022-10-20T22:58:35.103Z,70.52
2022-10-20T23:01:37.788Z,70.28
2022-10-20T23:04:40.312Z,71.46
2022-10-20T23:07:43.131Z,71.58
2022-10-20T23:10:45.700Z,72.53
2022-10-20T23:13:51.120Z,71.98
2022-10-20T23:16:53.829Z,72.48
2022-10-20T23:19:57.065Z,72.21
2022-10-20T23:22:59.768Z,71.97
2022-10-20T23:26:04.608Z,72.62
2022-10-20T23:29:08.927Z,71.78
2022-10-20T23:32:11.622Z,71.77
2022-10-20T23:35:14.423Z,72.85
2022-10-20T23:38:17.121Z,72.88
2022-10-20T23:41:19.750Z,72.56
2022-10-20T23:44:23.858Z,72.43
2022-10-20T23:47:26.531Z,73.45
2022-10-20T23:50:29.065Z,72.75
2022-10-20T23:53:31.959Z,70.95
2022-10-20T23:56:34.540Z,72.24
2022-10-20T23:59:38.567Z,72.83
